Check out our new BloomSky Weather System.

Active alerts


No alerts


Thunder radar  blitzortung!


Rain radar more information rain snow radar


Visit our other weather sites:

Template documentation
and downloads

And another site



Weather Underground History page Text

Daily Summary for October 5, 2017 Units:  English    Metric   Both
« Previous Day
Next Day »
Daily Weekly Monthly Yearly Custom
  High: Low: Average:
Temperature: 86.7 °F 70.2 °F 77.7 °F
Dew Point: 74.1 °F 66.0 °F 69.7 °F
Humidity: 96 % 53 % 78 %
Wind Speed: 7.0 mph 0.0 mph 0.9 mph
Wind Gust: 10.0 mph - -
Wind:- - SE
Pressure: 30.13 in 29.98 in -
Precipitation: 0.00 in    
Historical Graphs
 
 
Tabular Data for October 5, 2017
Time Temperature Dew Point Pressure Wind Wind Speed Wind Gust Humidity Rainfall Rate (Hourly)
00:04 74.5 °F 72.0 °F 30.13 in Calm     92 % 0.00 in
00:09 74.5 °F 72.0 °F 30.13 in Calm     92 % 0.00 in
00:14 74.5 °F 72.3 °F 30.12 in Calm     93 % 0.00 in
00:19 74.5 °F 72.3 °F 30.12 in Calm     93 % 0.00 in
00:24 74.5 °F 72.3 °F 30.12 in Calm   1.0 mph 93 % 0.00 in
00:29 74.5 °F 72.3 °F 30.12 in Calm   1.0 mph 93 % 0.00 in
00:34 74.7 °F 72.5 °F 30.12 in Calm   1.0 mph 93 % 0.00 in
00:39 74.7 °F 72.5 °F 30.12 in Calm   1.0 mph 93 % 0.00 in
00:44 74.7 °F 72.5 °F 30.12 in Calm   1.0 mph 93 % 0.00 in
00:59 74.8 °F 72.7 °F 30.11 in Calm   1.0 mph 93 % 0.00 in
01:04 74.8 °F 72.7 °F 30.11 in Calm   1.0 mph 93 % 0.00 in
01:09 74.8 °F 72.7 °F 30.11 in Calm   1.0 mph 93 % 0.00 in
01:14 74.8 °F 72.3 °F 30.11 in Calm   1.0 mph 92 % 0.00 in
01:19 74.8 °F 72.3 °F 30.11 in NNW 1.0 mph 1.0 mph 92 % 0.00 in
01:24 74.8 °F 72.3 °F 30.11 in NNW 1.0 mph 2.0 mph 92 % 0.00 in
01:29 74.7 °F 72.1 °F 30.11 in Calm   2.0 mph 92 % 0.00 in
01:34 74.7 °F 72.1 °F 30.11 in Calm   2.0 mph 92 % 0.00 in
01:39 74.5 °F 72.0 °F 30.12 in Calm   2.0 mph 92 % 0.00 in
01:44 74.5 °F 72.3 °F 30.12 in Calm   1.0 mph 93 % 0.00 in
01:49 74.1 °F 72.0 °F 30.12 in Calm   1.0 mph 93 % 0.00 in
01:54 73.9 °F 71.8 °F 30.11 in Calm   1.0 mph 93 % 0.00 in
01:59 73.9 °F 71.8 °F 30.12 in Calm   1.0 mph 93 % 0.00 in
02:04 73.8 °F 71.6 °F 30.12 in Calm   1.0 mph 93 % 0.00 in
02:14 73.6 °F 71.8 °F 30.11 in Calm   1.0 mph 94 % 0.00 in
02:19 73.6 °F 71.8 °F 30.11 in Calm   1.0 mph 94 % 0.00 in
02:24 73.6 °F 71.8 °F 30.11 in Calm   1.0 mph 94 % 0.00 in
02:29 73.4 °F 71.6 °F 30.11 in Calm   1.0 mph 94 % 0.00 in
02:34 73.2 °F 71.4 °F 30.11 in Calm   1.0 mph 94 % 0.00 in
02:39 73.2 °F 71.4 °F 30.11 in Calm   1.0 mph 94 % 0.00 in
02:44 73.0 °F 71.2 °F 30.11 in Calm   1.0 mph 94 % 0.00 in
02:54 73.0 °F 71.2 °F 30.11 in NNW 1.0 mph 4.0 mph 94 % 0.00 in
02:59 73.0 °F 71.2 °F 30.10 in Calm   4.0 mph 94 % 0.00 in
03:04 73.0 °F 70.9 °F 30.10 in Calm   4.0 mph 93 % 0.00 in
03:09 73.0 °F 70.9 °F 30.10 in Calm   4.0 mph 93 % 0.00 in
03:14 73.0 °F 70.9 °F 30.10 in Calm   3.0 mph 93 % 0.00 in
03:20 72.9 °F 70.7 °F 30.10 in NNE 1.0 mph 3.0 mph 93 % 0.00 in
03:25 72.9 °F 70.3 °F 30.10 in Calm   3.0 mph 92 % 0.00 in
03:30 72.7 °F 70.2 °F 30.10 in Calm   2.0 mph 92 % 0.00 in
03:35 72.7 °F 70.2 °F 30.10 in Calm   2.0 mph 92 % 0.00 in
03:39 72.3 °F 70.2 °F 30.10 in Calm   2.0 mph 93 % 0.00 in
03:45 72.3 °F 70.2 °F 30.10 in SE 1.0 mph 1.0 mph 93 % 0.00 in
03:49 72.1 °F 70.0 °F 30.10 in Calm   3.0 mph 93 % 0.00 in
03:54 72.1 °F 70.0 °F 30.09 in Calm   3.0 mph 93 % 0.00 in
03:59 72.1 °F 70.0 °F 30.09 in Calm   3.0 mph 93 % 0.00 in
04:05 72.0 °F 69.8 °F 30.09 in Calm   2.0 mph 93 % 0.00 in
04:10 71.8 °F 69.6 °F 30.09 in Calm   1.0 mph 93 % 0.00 in
04:15 71.8 °F 69.6 °F 30.09 in Calm   1.0 mph 93 % 0.00 in
04:20 71.8 °F 69.6 °F 30.09 in Calm     93 % 0.00 in
04:25 71.6 °F 69.4 °F 30.09 in Calm   1.0 mph 93 % 0.00 in
04:30 71.4 °F 69.3 °F 30.09 in Calm   1.0 mph 93 % 0.00 in
04:31 71.4 °F 69.3 °F 30.09 in Calm   1.0 mph 93 % 0.00 in
04:36 71.4 °F 69.6 °F 30.09 in Calm   1.0 mph 94 % 0.00 in
04:41 71.2 °F 69.4 °F 30.09 in Calm   1.0 mph 94 % 0.00 in
04:46 71.1 °F 69.3 °F 30.08 in Calm   1.0 mph 94 % 0.00 in
04:51 71.1 °F 69.3 °F 30.09 in Calm   1.0 mph 94 % 0.00 in
04:56 71.1 °F 69.3 °F 30.09 in Calm   1.0 mph 94 % 0.00 in
05:01 71.1 °F 69.3 °F 30.08 in Calm   1.0 mph 94 % 0.00 in
05:06 70.9 °F 69.1 °F 30.08 in Calm   1.0 mph 94 % 0.00 in
05:11 70.9 °F 69.4 °F 30.08 in Calm   1.0 mph 95 % 0.00 in
05:16 70.9 °F 69.4 °F 30.08 in Calm   1.0 mph 95 % 0.00 in
05:21 70.9 °F 69.4 °F 30.08 in Calm   1.0 mph 95 % 0.00 in
05:26 70.7 °F 69.3 °F 30.08 in Calm   1.0 mph 95 % 0.00 in
05:31 70.5 °F 69.1 °F 30.08 in Calm   1.0 mph 95 % 0.00 in
05:36 70.5 °F 69.1 °F 30.08 in Calm   1.0 mph 95 % 0.00 in
05:41 70.5 °F 69.1 °F 30.08 in Calm   1.0 mph 95 % 0.00 in
05:46 70.5 °F 69.1 °F 30.08 in Calm   1.0 mph 95 % 0.00 in
05:51 70.5 °F 69.3 °F 30.08 in Calm   1.0 mph 96 % 0.00 in
06:01 70.5 °F 69.3 °F 30.08 in Calm   1.0 mph 96 % 0.00 in
06:06 70.5 °F 69.3 °F 30.08 in Calm   1.0 mph 96 % 0.00 in
06:11 70.5 °F 69.3 °F 30.09 in Calm   1.0 mph 96 % 0.00 in
06:16 70.3 °F 69.1 °F 30.09 in Calm   1.0 mph 96 % 0.00 in
06:21 70.3 °F 69.1 °F 30.09 in Calm   1.0 mph 96 % 0.00 in
06:26 70.3 °F 69.1 °F 30.09 in Calm   1.0 mph 96 % 0.00 in
06:31 70.3 °F 69.1 °F 30.09 in Calm   1.0 mph 96 % 0.00 in
06:36 70.2 °F 68.9 °F 30.09 in Calm   2.0 mph 96 % 0.00 in
06:41 70.2 °F 68.9 °F 30.09 in Calm   2.0 mph 96 % 0.00 in
06:46 70.2 °F 68.9 °F 30.09 in Calm   2.0 mph 96 % 0.00 in
06:51 70.2 °F 68.9 °F 30.09 in Calm   1.0 mph 96 % 0.00 in
06:56 70.2 °F 68.9 °F 30.09 in Calm   1.0 mph 96 % 0.00 in
07:01 70.2 °F 68.9 °F 30.09 in Calm   1.0 mph 96 % 0.00 in
07:06 70.2 °F 68.9 °F 30.09 in Calm   1.0 mph 96 % 0.00 in
07:11 70.2 °F 68.9 °F 30.10 in North 1.0 mph 2.0 mph 96 % 0.00 in
07:16 70.2 °F 68.9 °F 30.10 in Calm   2.0 mph 96 % 0.00 in
07:21 70.2 °F 68.9 °F 30.10 in Calm   2.0 mph 96 % 0.00 in
07:26 70.2 °F 68.9 °F 30.10 in Calm   2.0 mph 96 % 0.00 in
07:32 70.2 °F 68.9 °F 30.10 in Calm   1.0 mph 96 % 0.00 in
07:37 70.2 °F 68.9 °F 30.10 in Calm   2.0 mph 96 % 0.00 in
07:42 70.2 °F 68.9 °F 30.10 in NE 1.0 mph 2.0 mph 96 % 0.00 in
07:47 70.3 °F 69.1 °F 30.10 in Calm   2.0 mph 96 % 0.00 in
07:52 70.3 °F 69.1 °F 30.10 in Calm   2.0 mph 96 % 0.00 in
07:57 70.5 °F 69.3 °F 30.10 in Calm   2.0 mph 96 % 0.00 in
08:07 71.4 °F 70.0 °F 30.09 in Calm   2.0 mph 95 % 0.00 in
08:12 71.8 °F 70.0 °F 30.10 in North 1.0 mph 2.0 mph 94 % 0.00 in
08:17 72.1 °F 70.3 °F 30.10 in Calm   2.0 mph 94 % 0.00 in
08:22 72.9 °F 70.7 °F 30.10 in North 1.0 mph 2.0 mph 93 % 0.00 in
08:27 73.6 °F 71.1 °F 30.10 in NNW 2.0 mph 2.0 mph 92 % 0.00 in
08:32 73.8 °F 70.7 °F 30.10 in NE 3.0 mph 3.0 mph 90 % 0.00 in
08:37 74.1 °F 70.7 °F 30.10 in NNW 1.0 mph 3.0 mph 89 % 0.00 in
08:42 74.7 °F 71.2 °F 30.10 in Calm   3.0 mph 89 % 0.00 in
08:47 75.2 °F 71.4 °F 30.10 in ENE 1.0 mph 4.0 mph 88 % 0.00 in
08:52 75.4 °F 71.2 °F 30.10 in North 2.0 mph 5.0 mph 87 % 0.00 in
09:02 76.3 °F 71.8 °F 30.10 in Calm   5.0 mph 86 % 0.00 in
09:07 76.6 °F 71.4 °F 30.11 in Calm   5.0 mph 84 % 0.00 in
09:12 76.8 °F 72.0 °F 30.11 in Calm   5.0 mph 85 % 0.00 in
09:17 76.8 °F 71.6 °F 30.11 in NNE 1.0 mph 5.0 mph 84 % 0.00 in
09:22 77.2 °F 71.6 °F 30.11 in North 1.0 mph 5.0 mph 83 % 0.00 in
09:27 77.5 °F 72.0 °F 30.11 in East 3.0 mph 6.0 mph 83 % 0.00 in
09:32 77.7 °F 72.1 °F 30.11 in NE 2.0 mph 6.0 mph 83 % 0.00 in
09:37 78.3 °F 72.7 °F 30.11 in ENE 3.0 mph 6.0 mph 83 % 0.00 in
09:47 78.6 °F 72.3 °F 30.11 in Calm   6.0 mph 81 % 0.00 in
09:52 79.0 °F 72.7 °F 30.11 in ENE 3.0 mph 6.0 mph 81 % 0.00 in
09:57 79.3 °F 73.0 °F 30.11 in SSE 2.0 mph 6.0 mph 81 % 0.00 in
10:02 79.5 °F 72.9 °F 30.11 in NE 4.0 mph 7.0 mph 80 % 0.00 in
10:07 79.7 °F 73.0 °F 30.11 in Calm   7.0 mph 80 % 0.00 in
10:12 80.2 °F 72.7 °F 30.10 in ENE 3.0 mph 7.0 mph 78 % 0.00 in
10:17 80.4 °F 73.2 °F 30.10 in North 2.0 mph 7.0 mph 79 % 0.00 in
10:22 80.8 °F 73.2 °F 30.10 in Calm   5.0 mph 78 % 0.00 in
10:27 81.0 °F 73.0 °F 30.10 in ENE 5.0 mph 6.0 mph 77 % 0.00 in
10:32 81.0 °F 73.0 °F 30.10 in SSW 1.0 mph 7.0 mph 77 % 0.00 in
10:37 81.1 °F 73.2 °F 30.10 in East 4.0 mph 8.0 mph 77 % 0.00 in
10:42 81.1 °F 73.2 °F 30.10 in ENE 2.0 mph 8.0 mph 77 % 0.00 in
10:47 81.7 °F 73.4 °F 30.10 in ESE 4.0 mph 8.0 mph 76 % 0.00 in
10:52 81.1 °F 73.2 °F 30.09 in ENE 1.0 mph 7.0 mph 77 % 0.00 in
10:57 81.7 °F 74.1 °F 30.09 in Calm   7.0 mph 78 % 0.00 in
11:02 82.2 °F 73.6 °F 30.09 in ENE 2.0 mph 7.0 mph 75 % 0.00 in
11:07 82.8 °F 73.6 °F 30.09 in SSE 2.0 mph 6.0 mph 74 % 0.00 in
11:12 82.6 °F 73.8 °F 30.09 in SE 3.0 mph 8.0 mph 75 % 0.00 in
11:17 82.8 °F 73.9 °F 30.09 in SE 1.0 mph 8.0 mph 75 % 0.00 in
11:22 82.8 °F 73.9 °F 30.09 in Calm   8.0 mph 75 % 0.00 in
11:32 83.1 °F 72.7 °F 30.09 in SSE 2.0 mph 5.0 mph 71 % 0.00 in
11:37 83.3 °F 73.8 °F 30.09 in ENE 2.0 mph 7.0 mph 73 % 0.00 in
11:42 82.8 °F 73.6 °F 30.09 in NNE 2.0 mph 7.0 mph 74 % 0.00 in
11:47 83.1 °F 72.7 °F 30.08 in NNE 2.0 mph 7.0 mph 71 % 0.00 in
11:52 82.9 °F 72.5 °F 30.09 in East 4.0 mph 7.0 mph 71 % 0.00 in
11:57 83.1 °F 72.3 °F 30.08 in NNW 1.0 mph 7.0 mph 70 % 0.00 in
12:02 83.7 °F 72.0 °F 30.08 in East 2.0 mph 7.0 mph 68 % 0.00 in
12:03 83.7 °F 71.6 °F 30.08 in Calm   7.0 mph 67 % 0.00 in
12:08 83.7 °F 72.0 °F 30.08 in ESE 2.0 mph 6.0 mph 68 % 0.00 in
12:13 84.0 °F 72.7 °F 30.08 in NNW 2.0 mph 6.0 mph 69 % 0.00 in
12:14 84.4 °F 72.7 °F 30.08 in SE 2.0 mph 6.0 mph 68 % 0.00 in
12:19 84.0 °F 72.0 °F 30.08 in NNW 1.0 mph 6.0 mph 67 % 0.00 in
12:24 83.3 °F 71.6 °F 30.07 in Calm   8.0 mph 68 % 0.00 in
12:29 83.5 °F 71.8 °F 30.07 in NNW 3.0 mph 8.0 mph 68 % 0.00 in
12:34 84.4 °F 72.1 °F 30.07 in East 4.0 mph 8.0 mph 67 % 0.00 in
12:39 84.9 °F 71.4 °F 30.07 in NE 4.0 mph 6.0 mph 64 % 0.00 in
12:44 85.3 °F 70.7 °F 30.06 in SE 1.0 mph 6.0 mph 62 % 0.00 in
12:49 85.3 °F 71.8 °F 30.06 in ESE 3.0 mph 7.0 mph 64 % 0.00 in
12:54 84.9 °F 70.9 °F 30.06 in North 2.0 mph 7.0 mph 63 % 0.00 in
12:55 84.9 °F 70.9 °F 30.06 in North 1.0 mph 7.0 mph 63 % 0.00 in
13:00 84.7 °F 70.3 °F 30.06 in NE 5.0 mph 7.0 mph 62 % 0.00 in
13:05 84.4 °F 70.9 °F 30.06 in NE 2.0 mph 7.0 mph 64 % 0.00 in
13:10 84.7 °F 72.1 °F 30.06 in ESE 6.0 mph 7.0 mph 66 % 0.00 in
13:15 85.3 °F 70.7 °F 30.05 in NE 3.0 mph 8.0 mph 62 % 0.00 in
13:20 84.7 °F 69.3 °F 30.05 in North 2.0 mph 8.0 mph 60 % 0.00 in
13:26 85.1 °F 68.7 °F 30.05 in Calm   8.0 mph 58 % 0.00 in
13:31 85.6 °F 68.7 °F 30.05 in ENE 3.0 mph 8.0 mph 57 % 0.00 in
13:36 85.8 °F 69.3 °F 30.04 in ENE 2.0 mph 6.0 mph 58 % 0.00 in
13:41 86.2 °F 69.6 °F 30.04 in ESE 4.0 mph 8.0 mph 58 % 0.00 in
13:46 86.2 °F 70.2 °F 30.04 in SE 5.0 mph 8.0 mph 59 % 0.00 in
13:51 86.7 °F 71.2 °F 30.04 in ENE 3.0 mph 8.0 mph 60 % 0.00 in
13:56 86.2 °F 69.1 °F 30.04 in ENE 4.0 mph 8.0 mph 57 % 0.00 in
14:01 86.2 °F 70.7 °F 30.04 in NW 4.0 mph 7.0 mph 60 % 0.00 in
14:06 85.6 °F 68.7 °F 30.04 in NNW 3.0 mph 7.0 mph 57 % 0.00 in
14:11 84.7 °F 68.4 °F 30.04 in ENE 5.0 mph 6.0 mph 58 % 0.00 in
14:16 84.4 °F 68.5 °F 30.03 in NNW 6.0 mph 6.0 mph 59 % 0.00 in
14:21 84.4 °F 68.5 °F 30.03 in East 3.0 mph 6.0 mph 59 % 0.00 in
14:26 84.2 °F 67.8 °F 30.03 in NNE 2.0 mph 10.0 mph 58 % 0.00 in
14:31 84.6 °F 68.7 °F 30.02 in Calm   10.0 mph 59 % 0.00 in
14:36 84.9 °F 68.0 °F 30.02 in East 4.0 mph 10.0 mph 57 % 0.00 in
14:41 84.9 °F 68.5 °F 30.02 in NE 3.0 mph 9.0 mph 58 % 0.00 in
14:46 85.3 °F 68.4 °F 30.02 in East 1.0 mph 9.0 mph 57 % 0.00 in
14:51 84.9 °F 68.0 °F 30.01 in Calm   9.0 mph 57 % 0.00 in
14:56 85.6 °F 67.6 °F 30.01 in SW 1.0 mph 5.0 mph 55 % 0.00 in
15:01 85.8 °F 68.9 °F 30.01 in ESE 2.0 mph 6.0 mph 57 % 0.00 in
15:06 86.2 °F 69.1 °F 30.01 in East 7.0 mph 7.0 mph 57 % 0.00 in
15:11 85.5 °F 68.0 °F 30.01 in ESE 1.0 mph 10.0 mph 56 % 0.00 in
15:16 85.3 °F 68.4 °F 30.01 in ENE 3.0 mph 10.0 mph 57 % 0.00 in
15:21 85.5 °F 66.9 °F 30.00 in NW 1.0 mph 10.0 mph 54 % 0.00 in
15:31 86.5 °F 68.4 °F 30.00 in ENE 1.0 mph 9.0 mph 55 % 0.00 in
15:36 86.0 °F 67.5 °F 30.00 in North 5.0 mph 6.0 mph 54 % 0.00 in
15:41 85.5 °F 67.5 °F 30.00 in East 1.0 mph 5.0 mph 55 % 0.00 in
15:46 85.3 °F 68.4 °F 30.00 in WNW 1.0 mph 5.0 mph 57 % 0.00 in
15:51 85.8 °F 68.4 °F 29.99 in Calm   5.0 mph 56 % 0.00 in
15:56 86.4 °F 68.7 °F 29.99 in ENE 2.0 mph 7.0 mph 56 % 0.00 in
16:01 86.5 °F 68.0 °F 29.99 in NE 2.0 mph 7.0 mph 54 % 0.00 in
16:06 86.4 °F 68.4 °F 29.99 in Calm   8.0 mph 55 % 0.00 in
16:11 85.6 °F 67.6 °F 29.99 in ENE 2.0 mph 8.0 mph 55 % 0.00 in
16:16 85.3 °F 67.8 °F 29.99 in SE 4.0 mph 8.0 mph 56 % 0.00 in
16:21 85.3 °F 68.4 °F 29.99 in ENE 2.0 mph 6.0 mph 57 % 0.00 in
16:26 85.5 °F 68.0 °F 29.99 in ESE 2.0 mph 6.0 mph 56 % 0.00 in
16:31 85.6 °F 68.2 °F 29.99 in East 2.0 mph 6.0 mph 56 % 0.00 in
16:36 85.8 °F 67.8 °F 29.99 in Calm   6.0 mph 55 % 0.00 in
16:41 85.8 °F 67.3 °F 29.99 in East 4.0 mph 7.0 mph 54 % 0.00 in
16:46 85.6 °F 66.6 °F 29.99 in East 2.0 mph 7.0 mph 53 % 0.00 in
16:51 85.8 °F 67.8 °F 29.99 in NE 1.0 mph 7.0 mph 55 % 0.00 in
16:56 86.5 °F 68.0 °F 29.99 in ENE 1.0 mph 5.0 mph 54 % 0.00 in
17:01 86.5 °F 67.5 °F 29.99 in NNE 1.0 mph 5.0 mph 53 % 0.00 in
17:06 86.2 °F 68.2 °F 29.98 in ENE 3.0 mph 7.0 mph 55 % 0.00 in
17:11 85.8 °F 67.3 °F 29.99 in NNW 2.0 mph 7.0 mph 54 % 0.00 in
17:16 85.3 °F 67.3 °F 29.99 in NNW 2.0 mph 7.0 mph 55 % 0.00 in
17:21 84.9 °F 66.9 °F 29.99 in North 3.0 mph 5.0 mph 55 % 0.00 in
17:26 84.7 °F 67.3 °F 29.98 in Calm   6.0 mph 56 % 0.00 in
17:31 84.6 °F 67.1 °F 29.98 in ENE 3.0 mph 6.0 mph 56 % 0.00 in
17:36 84.6 °F 67.6 °F 29.98 in Calm   6.0 mph 57 % 0.00 in
17:41 84.7 °F 67.3 °F 29.98 in NNW 3.0 mph 5.0 mph 56 % 0.00 in
17:46 84.7 °F 67.8 °F 29.98 in NE 3.0 mph 5.0 mph 57 % 0.00 in
17:51 84.7 °F 67.3 °F 29.98 in East 2.0 mph 5.0 mph 56 % 0.00 in
17:56 84.6 °F 66.0 °F 29.98 in ESE 3.0 mph 5.0 mph 54 % 0.00 in
18:02 84.0 °F 66.2 °F 29.98 in East 3.0 mph 6.0 mph 55 % 0.00 in
18:07 83.8 °F 66.9 °F 29.98 in ESE 1.0 mph 7.0 mph 57 % 0.00 in
18:12 83.7 °F 66.7 °F 29.98 in Calm   7.0 mph 57 % 0.00 in
18:17 83.7 °F 66.7 °F 29.99 in SE 1.0 mph 7.0 mph 57 % 0.00 in
18:22 83.5 °F 67.1 °F 29.98 in Calm   4.0 mph 58 % 0.00 in
18:32 82.9 °F 67.1 °F 29.99 in Calm   4.0 mph 59 % 0.00 in
18:37 82.8 °F 66.9 °F 29.99 in East 2.0 mph 3.0 mph 59 % 0.00 in
18:42 82.4 °F 66.6 °F 29.99 in Calm   3.0 mph 59 % 0.00 in
18:47 82.0 °F 66.7 °F 29.99 in Calm   3.0 mph 60 % 0.00 in
18:52 81.7 °F 66.9 °F 29.99 in Calm   2.0 mph 61 % 0.00 in
18:57 81.3 °F 67.1 °F 29.99 in Calm   2.0 mph 62 % 0.00 in
19:02 81.0 °F 67.1 °F 29.99 in Calm   1.0 mph 63 % 0.00 in
19:07 80.6 °F 67.3 °F 29.99 in Calm   1.0 mph 64 % 0.00 in
19:12 80.4 °F 67.6 °F 29.99 in Calm   1.0 mph 65 % 0.00 in
19:17 80.1 °F 67.3 °F 29.99 in Calm   1.0 mph 65 % 0.00 in
19:22 79.7 °F 67.3 °F 29.99 in Calm   1.0 mph 66 % 0.00 in
19:27 79.3 °F 67.5 °F 29.99 in Calm   1.0 mph 67 % 0.00 in
19:37 78.8 °F 67.3 °F 29.99 in Calm   1.0 mph 68 % 0.00 in
19:42 78.6 °F 67.6 °F 29.99 in Calm   1.0 mph 69 % 0.00 in
19:47 78.3 °F 67.6 °F 29.99 in Calm   1.0 mph 70 % 0.00 in
20:02 77.5 °F 67.8 °F 29.99 in Calm   1.0 mph 72 % 0.00 in
20:07 77.2 °F 67.8 °F 30.00 in Calm   1.0 mph 73 % 0.00 in
20:17 76.6 °F 67.6 °F 30.00 in Calm   1.0 mph 74 % 0.00 in
20:22 76.5 °F 68.4 °F 30.00 in Calm   1.0 mph 76 % 0.00 in
20:27 76.3 °F 68.2 °F 30.00 in Calm   1.0 mph 76 % 0.00 in
20:32 75.9 °F 68.2 °F 30.00 in Calm   1.0 mph 77 % 0.00 in
20:37 75.7 °F 68.0 °F 30.00 in Calm   1.0 mph 77 % 0.00 in
20:42 75.7 °F 68.4 °F 30.01 in Calm   1.0 mph 78 % 0.00 in
20:47 75.7 °F 68.4 °F 30.01 in Calm   3.0 mph 78 % 0.00 in
20:52 75.9 °F 68.5 °F 30.01 in Calm   3.0 mph 78 % 0.00 in
20:57 75.9 °F 68.5 °F 30.01 in Calm   3.0 mph 78 % 0.00 in
21:02 75.7 °F 68.4 °F 30.01 in Calm   1.0 mph 78 % 0.00 in
21:07 75.6 °F 68.2 °F 30.01 in Calm   1.0 mph 78 % 0.00 in
21:12 75.6 °F 68.5 °F 30.01 in Calm   1.0 mph 79 % 0.00 in
21:17 75.6 °F 68.5 °F 30.01 in Calm   1.0 mph 79 % 0.00 in
21:22 75.4 °F 68.7 °F 30.01 in Calm   1.0 mph 80 % 0.00 in
21:27 75.0 °F 68.4 °F 30.01 in Calm   1.0 mph 80 % 0.00 in
21:37 74.8 °F 68.5 °F 30.01 in Calm   1.0 mph 81 % 0.00 in
21:42 74.7 °F 68.4 °F 30.01 in Calm   1.0 mph 81 % 0.00 in
21:47 74.5 °F 68.5 °F 30.02 in Calm   1.0 mph 82 % 0.00 in
21:52 74.1 °F 68.5 °F 30.02 in Calm     83 % 0.00 in
21:57 73.9 °F 68.4 °F 30.02 in Calm     83 % 0.00 in
22:07 73.9 °F 68.7 °F 30.02 in Calm     84 % 0.00 in
22:12 73.8 °F 68.5 °F 30.02 in Calm     84 % 0.00 in
22:17 73.4 °F 68.2 °F 30.02 in Calm     84 % 0.00 in
22:22 73.2 °F 68.4 °F 30.02 in Calm     85 % 0.00 in
22:23 73.2 °F 68.4 °F 30.02 in Calm     85 % 0.00 in
22:25 73.0 °F 68.5 °F 30.02 in Calm     86 % 0.00 in
22:29 73.0 °F 68.5 °F 30.02 in Calm     86 % 0.00 in
22:34 72.9 °F 68.4 °F 30.03 in Calm     86 % 0.00 in
22:38 72.7 °F 68.2 °F 30.03 in Calm     86 % 0.00 in
22:43 72.7 °F 68.5 °F 30.03 in Calm     87 % 0.00 in
22:48 72.3 °F 68.2 °F 30.03 in Calm     87 % 0.00 in
22:53 72.3 °F 68.5 °F 30.03 in Calm     88 % 0.00 in
23:03 72.0 °F 68.5 °F 30.03 in Calm     89 % 0.00 in
23:08 71.8 °F 68.4 °F 30.03 in Calm     89 % 0.00 in
23:13 71.4 °F 68.0 °F 30.03 in Calm     89 % 0.00 in
23:18 71.2 °F 68.5 °F 30.02 in Calm     91 % 0.00 in
23:23 71.2 °F 68.5 °F 30.02 in Calm     91 % 0.00 in
23:28 71.2 °F 68.2 °F 30.02 in Calm     90 % 0.00 in
23:33 71.1 °F 68.0 °F 30.02 in Calm     90 % 0.00 in
23:38 70.9 °F 68.2 °F 30.02 in Calm     91 % 0.00 in
23:43 70.7 °F 68.2 °F 30.02 in Calm     92 % 0.00 in
23:48 70.5 °F 68.0 °F 30.01 in Calm     92 % 0.00 in
23:53 70.5 °F 68.0 °F 30.01 in Calm     92 % 0.00 in
23:58 70.3 °F 67.8 °F 30.01 in Calm     92 % 0.00 in
Spring, Texas: Villages of Bridgestone
Compliments of Weather Underground - 2.75 mb

Script developed by  Jim McMurry - jmcmurry@mwt.net Adapted for the template by  Wim van der Kuil - Leuven-Template.eu

You find our weather info also at:

UK Metoffice

WeatherCloud

Weather Underground

Mid-South Weather Network

AWEKAS

Citizen Weather Observer Program (CWOP)

HAMweather, WeatherForYou, PWS Weather

Equipment we use:

Weather-station
Davis Vantage Vue

Weather-program
Meteohub

Weather-server
Debian 7.9 x86 (Guest)

Provider
DreamHost

Davis Vantage Vue

Meteohub

Debian 7.9 x86 (Guest)

DreamHost